Terminal Aerodrome Forecast
Issued by NWS

Current Version | Previous Version | Graphics & Text | Print | Product List | Glossary On
Versions: 1 2 3 4 5 6 7 8 9 10 11 12 13 14 15 16 17 18 19 20 21 22 23
353
FTUS41 KRLX 241120
TAFCKB
TAF
KCKB 241120Z 2412/2512 07005KT P6SM -RA OVC050
     FM241800 07005KT P6SM OVC080=

USA.gov is the U.S. government's official web portal to all federal, state and local government web resources and services.